Change the Weather History Date:

Tuesday, September 23, 2014

  Actual Average (KVPZ) Record (KVPZ)
Temperature  
Mean Temperature 55 °F 61 °F  
Max Temperature 70 °F 72 °F 90 °F (2010)
Min Temperature 40 °F 50 °F 39 °F (2012)
Degree Days  
Heating Degree Days 10 6  
Month to date heating degree days 64  
Since 1 July heating degree days 81  
Cooling Degree Days 0 1  
Month to date cooling degree days 58  
Year to date cooling degree days 694  
Growing Degree Days 5 (Base 50)    
Moisture  
Dew Point 46 °F    
Average Humidity 78    
Maximum Humidity 100    
Minimum Humidity 42    
Precipitation  
Precipitation 0.00 in 0.10 in 0.31 in (2000)
Month to date precipitation 2.46  
Year to date precipitation 28.00  
Sea Level Pressure  
Sea Level Pressure 30.33 in    
Wind  
Wind Speed 1 mph (NNE)    
Max Wind Speed 6 mph    
Max Gust Speed -    
Visibility 10 miles    
Events      
T = Trace of Precipitation, MM = Missing Value Source: NWS Daily Summary

Daily Weather History Graph

Daily Weather History Graph

Search for Another Location

Airport or City:

Trip Planner

Search our weather history database for the weather conditions in past years. The results will help you decide how hot, cold, wet, or windy it might be!

Date:

Astronomy

Sep. 23, 2014 Rise Set
Actual Time 6:35 AM CDT 6:42 PM CDT
Civil Twilight 6:07 AM CDT 7:10 PM CDT
Nautical Twilight 5:35 AM CDT 7:42 PM CDT
Astronomical Twilight 5:02 AM CDT 8:15 PM CDT
Moon 5:59 AM CDT (9/23) 6:20 PM CDT (9/23)
Length of Visible Light 13h 02m
Length of Day
12h 06m
Waning Crescent, 0% of the Moon is Illuminated
Sep 23
Waning Crescent
Sep 24
New
Oct 1
First Quarter
Oct 8
Full
Oct 15
Last Quarter

Hourly Weather History & Observations

Time (CDT) Temp. Dew Point Humidity Pressure Visibility Wind Dir Wind Speed Gust Speed Precip Events Conditions
12:15 AM 42.3 °F 42.3 °F 100% 30.29 in 10.0 mi Calm Calm - N/A   Clear
12:35 AM 42.8 °F 42.8 °F 100% 30.29 in 10.0 mi Calm Calm - N/A   Clear
12:55 AM 42.4 °F 42.4 °F 100% 30.29 in 10.0 mi Calm Calm - N/A   Clear
1:15 AM 42.6 °F 42.6 °F 100% 30.30 in 10.0 mi Calm Calm - N/A   Scattered Clouds
1:35 AM 42.1 °F 42.1 °F 100% 30.30 in 10.0 mi Calm Calm - N/A   Clear
1:55 AM 42.1 °F 42.1 °F 100% 30.31 in 10.0 mi Calm Calm - N/A   Clear
2:15 AM 42.1 °F 42.1 °F 100% 30.30 in 10.0 mi Calm Calm - N/A   Clear
2:35 AM 42.3 °F 42.3 °F 100% 30.30 in 10.0 mi Calm Calm - N/A   Clear
2:55 AM 41.9 °F 41.9 °F 100% 30.30 in 10.0 mi Calm Calm - N/A   Clear
3:15 AM 41.5 °F 41.5 °F 100% 30.30 in 10.0 mi Calm Calm - N/A   Clear
3:35 AM 41.0 °F 41.0 °F 100% 30.30 in 10.0 mi Calm Calm - N/A   Clear
3:55 AM 41.2 °F 41.2 °F 100% 30.30 in 10.0 mi Calm Calm - N/A   Clear
4:15 AM 40.6 °F 40.6 °F 100% 30.30 in 10.0 mi Calm Calm - N/A   Clear
4:35 AM 40.3 °F 40.3 °F 100% 30.31 in 10.0 mi Calm Calm - N/A   Clear
5:15 AM 40.6 °F 40.6 °F 100% 30.31 in 10.0 mi Calm Calm - N/A   Clear
5:35 AM 40.5 °F 40.5 °F 100% 30.32 in 10.0 mi Calm Calm - N/A   Clear
5:55 AM 40.1 °F 40.1 °F 100% 30.33 in 10.0 mi Calm Calm - N/A   Clear
6:15 AM 40.1 °F 40.1 °F 100% 30.33 in 10.0 mi Calm Calm - N/A   Clear
6:35 AM 40.3 °F 40.3 °F 100% 30.33 in 10.0 mi Calm Calm - N/A   Clear
6:55 AM 40.3 °F 40.3 °F 100% 30.34 in 10.0 mi Calm Calm - N/A   Clear
7:15 AM 41.2 °F 41.2 °F 100% 30.34 in 10.0 mi Calm Calm - N/A   Clear
7:35 AM 44.8 °F 44.8 °F 100% 30.35 in 5.0 mi Calm Calm - N/A   Clear
7:55 AM 46.8 °F 46.8 °F 100% 30.35 in 10.0 mi Calm Calm - N/A   Clear
8:15 AM 49.3 °F 49.3 °F 100% 30.36 in 10.0 mi Calm Calm - N/A   Clear
8:35 AM 51.6 °F 49.1 °F 91% 30.36 in 10.0 mi Calm Calm - N/A   Clear
8:55 AM 53.4 °F 49.1 °F 85% 30.36 in 10.0 mi SW 3.5 mph - N/A   Clear
9:15 AM 55.6 °F 48.6 °F 77% 30.36 in 10.0 mi SSW 4.6 mph - N/A   Clear
9:35 AM 57.0 °F 47.8 °F 71% 30.37 in 10.0 mi SW 5.8 mph - N/A   Clear
9:55 AM 59.0 °F 49.1 °F 70% 30.37 in 10.0 mi SW 4.6 mph - N/A   Clear
10:15 AM 60.1 °F 48.7 °F 66% 30.37 in 10.0 mi Calm Calm - N/A   Clear
10:35 AM 61.7 °F 48.4 °F 62% 30.37 in 10.0 mi WSW 4.6 mph - N/A   Clear
10:55 AM 63.3 °F 48.0 °F 57% 30.37 in 10.0 mi Calm Calm - N/A   Clear
11:15 AM 64.4 °F 47.1 °F 53% 30.37 in 10.0 mi West 3.5 mph - N/A   Clear
11:35 AM 64.9 °F 46.6 °F 51% 30.37 in 10.0 mi Calm Calm - N/A   Clear
11:55 AM 66.2 °F 47.1 °F 50% 30.36 in 10.0 mi SSE 3.5 mph - N/A   Clear
12:15 PM 66.6 °F 46.2 °F 48% 30.36 in 10.0 mi Calm Calm - N/A   Clear
12:35 PM 67.6 °F 47.5 °F 48% 30.36 in 10.0 mi ENE 3.5 mph - N/A   Clear
12:55 PM 67.6 °F 46.8 °F 47% 30.36 in 10.0 mi ENE 4.6 mph - N/A   Clear
1:15 PM 68.2 °F 47.5 °F 47% 30.35 in 10.0 mi SW 5.8 mph - N/A   Clear
1:35 PM 68.7 °F 46.9 °F 46% 30.35 in 10.0 mi Calm Calm - N/A   Clear
1:55 PM 68.9 °F 45.9 °F 44% 30.34 in 10.0 mi Calm Calm - N/A   Clear
2:15 PM 70.0 °F 47.7 °F 45% 30.34 in 10.0 mi SSW 4.6 mph - N/A   Clear
2:55 PM 70.3 °F 46.8 °F 43% 30.33 in 10.0 mi West 3.5 mph - N/A   Clear
3:15 PM 70.2 °F 46.9 °F 43% 30.32 in 10.0 mi Calm Calm - N/A   Clear
3:35 PM 70.0 °F 45.7 °F 42% 30.31 in 10.0 mi Calm Calm - N/A   Clear
3:55 PM 70.7 °F 47.5 °F 44% 30.30 in 10.0 mi NNE 4.6 mph - N/A   Clear
4:15 PM 70.3 °F 48.2 °F 45% 30.30 in 10.0 mi Calm Calm - N/A   Clear
4:35 PM 69.8 °F 49.3 °F 48% 30.30 in 10.0 mi Calm Calm - N/A   Clear
4:55 PM 69.3 °F 50.4 °F 51% 30.30 in 10.0 mi NNE 4.6 mph - N/A   Clear
5:15 PM 68.9 °F 50.4 °F 52% 30.30 in 10.0 mi NNE 4.6 mph - N/A   Clear
5:35 PM 67.6 °F 51.3 °F 56% 30.30 in 10.0 mi NNE 5.8 mph - N/A   Clear
5:55 PM 66.7 °F 50.4 °F 56% 30.30 in 10.0 mi NE 5.8 mph - N/A   Clear
6:15 PM 65.3 °F 50.7 °F 59% 30.30 in 10.0 mi NNE 3.5 mph - N/A   Clear
6:35 PM 62.2 °F 50.7 °F 66% 30.30 in 10.0 mi NE 4.6 mph - N/A   Clear
6:55 PM 59.4 °F 50.2 °F 72% 30.31 in 7.0 mi NNE 4.6 mph - N/A   Clear
7:15 PM 57.0 °F 50.0 °F 77% 30.31 in 5.0 mi Calm Calm - N/A   Haze
7:35 PM 56.1 °F 50.5 °F 82% 30.31 in 10.0 mi Calm Calm - N/A   Scattered Clouds
7:55 PM 55.4 °F 49.6 °F 81% 30.32 in 10.0 mi Calm Calm - N/A   Clear
8:15 PM 55.4 °F 50.4 °F 83% 30.32 in 10.0 mi Calm Calm - N/A   Clear
8:35 PM 53.4 °F 48.4 °F 83% 30.32 in 10.0 mi Calm Calm - N/A   Clear
8:55 PM 50.4 °F 47.7 °F 90% 30.32 in 10.0 mi Calm Calm - N/A   Clear
9:15 PM 51.8 °F 49.1 °F 90% 30.33 in 10.0 mi ENE 3.5 mph - N/A   Clear
9:35 PM 51.4 °F 48.6 °F 90% 30.33 in 10.0 mi Calm Calm - N/A   Scattered Clouds
9:55 PM 49.1 °F 47.1 °F 93% 30.33 in 10.0 mi Calm Calm - N/A   Scattered Clouds
10:15 PM 50.9 °F 47.8 °F 89% 30.33 in 10.0 mi Calm Calm - N/A   Clear
10:35 PM 50.0 °F 47.3 °F 90% 30.33 in 10.0 mi Calm Calm - N/A   Clear
10:55 PM 49.6 °F 48.4 °F 95% 30.33 in 10.0 mi Calm Calm - N/A   Clear
11:15 PM 48.0 °F 46.2 °F 93% 30.34 in 10.0 mi Calm Calm - N/A   Clear
11:35 PM 48.6 °F 46.8 °F 93% 30.34 in 10.0 mi Calm Calm - N/A   Clear
11:55 PM 48.2 °F 47.7 °F 98% 30.34 in 10.0 mi Calm Calm - N/A   Clear